Latest Weather Observations for Cooma Airport

IDN60901

Issued at 6:15 am EDT Saturday 1 November 2014 (issued every 10 minutes, with the page automatically refreshed every 10 minutes)

About weather observations | Map of Canberra area stations | Latest observations for Canberra area | Other Formats
Station Details ID: 070217 Name: COOMA AIRPORT AWS Lat: -36.29 Lon: 148.97 Height: 930.0 m
Data from the previous 72 hours. | See also: Recent months for locations in Aust Capital Territory
Date/Time
EDT
Tmp

°C
App
Tmp
°C
Dew
Point
°C
Rel
Hum
%
Delta-T

°C
Wind Press
QNH
hPa
Press
MSL
hPa
Rain
since
9 am
mm
Dir
 
Spd
km/h
Gust
km/h
Spd
kts
Gust
kts
01/06:00am 17.6 11.6 8.7 56 4.8 N 30 39 16 21 1004.0 1002.6 -
01/05:30am 18.3 12.2 8.3 52 5.4 NNW 30 43 16 23 1004.1 1002.7 -
01/05:09am 18.7 10.9 8.1 50 5.7 NNW 39 59 21 32 1004.1 1002.7 -
01/05:00am 18.7 - 7.5 48 6.0 - - - - - 1004.1 1002.7 -
01/04:30am 18.4 11.9 4.9 41 6.8 NNW 28 39 15 21 1004.5 1003.2 -
01/04:23am 18.8 12.0 4.9 40 7.1 NNW 30 48 16 26 1004.5 1003.2 -
01/04:00am 18.9 12.0 2.7 34 7.9 N 28 44 15 24 1004.6 1003.3 -
01/03:30am 19.8 12.5 0.3 27 9.1 N 28 43 15 23 1004.9 1003.6 -
01/03:29am 20.0 12.8 0.5 27 9.2 N 28 43 15 23 1004.9 1003.6 -
01/03:00am 18.5 13.3 0.2 29 8.5 NNW 17 22 9 12 1005.3 1003.9 -
01/02:00am 17.9 12.9 1.4 33 7.8 NNW 17 22 9 12 1005.7 1004.4 0.0
01/01:30am 13.0 9.6 2.0 47 5.0 N 9 13 5 7 1006.1 1004.8 0.0
01/01:00am 16.1 11.0 2.9 41 6.3 ENE 19 26 10 14 1006.5 1005.2 0.0
01/12:59am 16.1 10.9 2.5 40 6.4 ENE 19 22 10 12 1006.5 1005.2 0.0
01/12:30am 11.0 7.8 3.1 58 3.6 NNE 9 13 5 7 1007.4 1006.1 0.0
01/12:00am 10.8 8.0 3.1 59 3.6 NNE 7 9 4 5 1007.9 1006.6 0.0
 
Date/Time
EDT
Tmp

°C
App
Tmp
°C
Dew
Point
°C
Rel
Hum
%
Delta-T

°C
Wind Press
QNH
hPa
Press
MSL
hPa
Rain
since
9 am
mm
Dir
 
Spd
km/h
Gust
km/h
Spd
kts
Gust
kts
31/11:30pm 11.7 8.3 4.0 59 3.6 N 11 13 6 7 1008.3 1007.1 0.0
31/11:00pm 9.7 6.8 2.8 62 3.1 NNW 7 9 4 5 1008.6 1007.3 0.0
31/10:30pm 12.3 10.9 3.8 56 4.0 CALM 0 0 0 0 1008.9 1007.6 0.0
31/10:00pm 12.6 11.2 3.8 55 4.2 CALM 0 0 0 0 1009.2 1008.0 0.0
31/09:30pm 12.4 10.7 3.9 56 4.0 NE 2 9 1 5 1009.3 1008.1 0.0
31/09:00pm 13.0 11.7 3.9 54 4.4 CALM 0 0 0 0 1009.3 1008.1 0.0
31/08:30pm 15.3 13.9 3.8 46 5.6 CALM 0 0 0 0 1009.3 1008.1 0.0
31/08:00pm 17.3 14.6 3.9 41 6.6 N 7 9 4 5 1009.3 1008.1 0.0
31/07:30pm 21.5 17.5 2.7 29 9.3 NNW 13 15 7 8 1009.4 1008.2 0.0
31/07:00pm 22.7 17.9 2.8 27 10.0 NNW 17 24 9 13 1009.2 1008.0 0.0
31/06:30pm 23.1 19.6 3.6 28 9.9 NNW 11 19 6 10 1009.2 1008.0 0.0
31/06:00pm 24.7 20.5 3.9 26 10.8 NW 15 30 8 16 1009.3 1008.1 0.0
31/05:30pm 25.4 20.4 4.5 26 11.0 WNW 20 30 11 16 1009.3 1008.1 0.0
31/05:00pm 24.9 21.0 5.2 28 10.5 NW 15 28 8 15 1009.5 1008.3 0.0
31/04:30pm 24.4 20.7 4.2 27 10.5 NW 13 19 7 10 1010.0 1008.7 0.0
31/04:00pm 23.6 18.8 2.4 25 10.6 WNW 17 26 9 14 1010.2 1009.0 0.0
31/03:30pm 23.0 17.7 3.0 27 10.1 WNW 20 26 11 14 1010.4 1009.2 0.0
31/03:00pm 23.1 18.1 3.6 28 9.9 WNW 19 28 10 15 1010.7 1009.5 0.0
31/02:30pm 23.5 17.3 2.4 25 10.5 WNW 24 37 13 20 1011.2 1010.0 0.0
31/02:17pm 23.6 16.6 1.9 24 10.7 WNW 28 50 15 27 1011.3 1010.1 0.0
31/02:00pm 23.9 16.8 1.5 23 11.0 WNW 28 41 15 22 1011.5 1010.3 0.0
31/01:32pm 24.3 17.4 2.5 24 11.0 W 28 46 15 25 1011.7 1010.5 0.0
31/01:30pm 24.2 17.3 2.4 24 10.9 W 28 39 15 21 1011.7 1010.5 0.0
31/01:01pm 24.2 16.6 2.9 25 10.8 WNW 32 50 17 27 1012.0 1010.7 0.0
31/01:00pm 24.1 16.3 2.9 25 10.7 W 33 50 18 27 1012.1 1010.9 0.0
31/12:30pm 24.1 18.1 3.4 26 10.6 NW 24 35 13 19 1012.3 1011.1 0.0
31/12:13pm 24.2 17.5 3.5 26 10.6 NW 28 46 15 25 1012.5 1011.3 0.0
31/12:00pm 24.0 17.7 3.9 27 10.4 NW 26 43 14 23 1012.6 1011.4 0.0
31/11:30am 23.9 16.6 4.3 28 10.2 NW 32 44 17 24 1012.9 1011.7 0.0
31/11:00am 23.4 16.7 3.4 27 10.2 NNW 28 39 15 21 1013.4 1012.2 0.0
31/10:30am 22.8 17.5 4.8 31 9.3 NW 22 32 12 17 1014.0 1012.9 0.0
31/10:00am 22.0 16.9 5.8 35 8.5 NW 22 33 12 18 1014.5 1013.3 0.0
31/09:30am 20.5 16.5 4.9 36 8.0 N 15 20 8 11 1014.8 1013.6 0.0
31/09:00am 19.0 14.8 5.8 42 6.8 NNE 17 22 9 12 1015.1 1014.0 0.0
31/08:30am 18.2 13.4 5.8 44 6.4 N 20 24 11 13 1015.1 1014.0 0.0
31/08:00am 14.7 11.1 6.8 59 4.0 NE 15 19 8 10 1014.9 1013.8 0.0
31/07:30am 11.9 8.2 4.6 61 3.5 NE 13 17 7 9 1014.6 1013.4 0.0
31/07:00am 9.5 6.4 3.7 67 2.7 NNE 9 13 5 7 1014.2 1013.1 0.0
31/06:30am 7.8 4.5 2.3 68 2.4 NE 9 13 5 7 1014.1 1013.0 0.0
31/06:00am 7.4 4.4 1.7 67 2.5 NE 7 11 4 6 1013.9 1012.8 0.0
31/05:30am 6.7 2.8 1.4 69 2.3 NE 11 11 6 6 1013.8 1012.6 0.0
31/05:00am 6.8 3.3 1.3 68 2.3 ENE 9 11 5 6 1013.6 1012.4 0.0
31/04:30am 7.0 3.6 1.9 70 2.2 NE 9 11 5 6 1013.7 1012.5 0.0
31/04:00am 7.5 4.2 2.2 69 2.3 ENE 9 13 5 7 1013.9 1012.8 0.0
31/03:30am 7.2 3.1 2.1 70 2.2 NE 13 15 7 8 1014.1 1013.0 0.0
31/03:00am 5.8 2.3 1.5 74 1.8 NE 9 15 5 8 1014.2 1013.1 0.0
31/02:30am 5.8 2.0 1.5 74 1.8 NE 11 15 6 8 1014.2 1013.1 0.0
31/02:00am 7.9 5.0 2.4 68 2.4 NE 7 11 4 6 1014.5 1013.3 0.0
31/01:30am 6.8 3.1 2.3 73 2.0 NNE 11 17 6 9 1014.9 1013.8 0.0
31/01:00am 5.7 1.5 1.8 76 1.7 NE 13 17 7 9 1015.2 1014.1 0.0
31/12:30am 6.9 3.7 2.8 75 1.8 NE 9 13 5 7 1015.6 1014.4 0.0
31/12:00am 5.5 2.2 2.5 81 1.3 NNE 9 11 5 6 1015.7 1014.5 0.0
 
Date/Time
EDT
Tmp

°C
App
Tmp
°C
Dew
Point
°C
Rel
Hum
%
Delta-T

°C
Wind Press
QNH
hPa
Press
MSL
hPa
Rain
since
9 am
mm
Dir
 
Spd
km/h
Gust
km/h
Spd
kts
Gust
kts
30/11:30pm 6.3 4.8 2.8 78 1.5 CALM 0 0 0 0 1015.8 1014.7 0.0
30/11:00pm 6.4 4.9 3.2 80 1.4 CALM 0 0 0 0 1015.9 1014.8 0.0
30/10:30pm 6.6 5.1 3.0 78 1.6 CALM 0 0 0 0 1016.1 1015.0 0.0
30/10:00pm 6.8 4.9 2.7 75 1.8 NE 2 6 1 3 1016.3 1015.2 0.0
30/09:30pm 8.7 7.2 3.1 68 2.5 CALM 0 0 0 0 1016.1 1015.0 0.0
30/09:00pm 10.2 8.7 3.0 61 3.3 CALM 0 0 0 0 1015.9 1014.8 0.0
30/08:30pm 11.6 9.7 3.1 56 3.9 NE 2 7 1 4 1015.8 1014.7 0.0
30/08:00pm 12.7 10.3 2.3 49 4.8 E 4 11 2 6 1015.2 1014.1 0.0
30/07:30pm 17.4 12.5 2.2 36 7.2 W 17 20 9 11 1014.9 1013.8 0.0
30/07:00pm 18.8 13.3 1.8 32 8.1 W 20 26 11 14 1014.6 1013.4 0.0
30/06:30pm 19.9 15.0 4.0 35 8.0 W 19 28 10 15 1014.2 1013.1 0.0
30/06:00pm 20.5 14.7 2.3 30 8.9 WNW 22 30 12 16 1014.0 1012.9 0.0
30/05:30pm 21.0 15.0 1.3 27 9.5 W 22 35 12 19 1013.9 1012.8 0.0
30/05:00pm 21.6 15.4 2.3 28 9.5 WNW 24 35 13 19 1013.9 1012.8 0.0
30/04:30pm 22.1 16.9 3.3 29 9.5 W 20 28 11 15 1013.9 1012.8 0.0
30/04:00pm 22.1 15.4 1.7 26 10.0 W 26 37 14 20 1014.0 1012.9 0.0
30/03:30pm 22.3 16.6 2.9 28 9.7 W 22 37 12 20 1013.9 1012.8 0.0
30/03:00pm 22.6 17.3 2.1 26 10.1 W 19 28 10 15 1014.0 1012.9 0.0
30/02:30pm 22.4 16.2 2.0 26 10.0 W 24 35 13 19 1014.5 1013.3 0.0
30/02:00pm 21.9 15.5 1.0 25 10.1 W 24 33 13 18 1014.4 1013.2 0.0
30/01:30pm 21.2 15.8 2.5 29 9.2 NW 20 28 11 15 1014.5 1013.3 0.0
30/01:00pm 21.0 15.5 1.8 28 9.3 NW 20 28 11 15 1014.7 1013.5 0.0
30/12:30pm 21.0 15.7 3.2 31 8.9 WNW 20 32 11 17 1015.0 1013.9 0.0
30/12:00pm 20.7 13.8 2.5 30 8.9 W 28 41 15 22 1015.3 1014.2 0.0
30/11:30am 20.2 13.9 3.9 34 8.2 WSW 26 35 14 19 1015.5 1014.3 0.0
30/11:00am 19.4 15.1 3.2 34 8.0 W 15 24 8 13 1015.8 1014.7 0.0
30/10:30am 18.1 12.6 1.6 33 7.8 W 20 32 11 17 1015.9 1014.8 0.0
30/10:00am 18.0 13.4 3.5 38 7.1 W 17 26 9 14 1015.9 1014.8 0.0
30/09:30am 16.6 13.7 4.6 45 6.0 W 9 15 5 8 1015.9 1014.8 0.0
30/09:00am 15.6 13.3 5.8 52 4.9 NNE 7 13 4 7 1016.0 1014.9 0.0
30/08:30am 14.2 11.5 5.8 57 4.2 NNE 9 11 5 6 1016.0 1014.9 0.0
30/08:00am 11.6 9.0 6.3 70 2.6 NE 9 13 5 7 1016.2 1015.1 0.0
30/07:30am 9.8 7.6 6.2 78 1.8 NE 7 9 4 5 1015.9 1014.8 0.0
30/07:00am 8.6 6.6 4.6 76 1.9 E 4 9 2 5 1015.7 1014.5 0.0
30/06:30am 7.8 6.4 3.7 75 1.9 CALM 0 0 0 0 1015.6 1014.4 0.0
30/06:00am 9.6 6.3 4.6 71 2.4 NW 11 15 6 8 1015.5 1014.3 0.0
30/05:30am 7.9 6.2 3.9 76 1.8 E 2 6 1 3 1015.3 1014.2 0.0
30/05:00am 7.8 5.2 4.0 77 1.7 ENE 7 11 4 6 1015.2 1014.1 0.0
30/04:30am 6.2 3.7 3.5 83 1.2 N 6 9 3 5 1015.2 1014.1 0.0
30/04:00am 6.2 3.5 3.7 84 1.1 N 7 13 4 7 1015.2 1014.1 0.0
30/03:30am 5.6 2.4 2.9 83 1.2 ENE 9 11 5 6 1015.3 1014.2 0.0
30/03:00am 5.9 2.8 1.2 72 2.0 WNW 7 9 4 5 1015.5 1014.3 0.0
30/02:30am 8.3 5.3 2.3 66 2.7 NW 7 11 4 6 1015.6 1014.4 0.0
30/02:00am 11.3 7.3 3.1 57 3.8 NW 13 17 7 9 1015.5 1014.3 0.0
30/01:30am 11.5 7.2 3.3 57 3.8 NW 15 20 8 11 1015.8 1014.7 0.0
30/01:00am 12.2 7.9 3.4 55 4.1 NW 15 20 8 11 1016.1 1015.0 0.0
30/12:30am 12.4 7.8 3.9 56 4.0 NW 17 30 9 16 1016.5 1015.4 0.0
30/12:00am 11.5 7.8 4.5 62 3.3 NW 13 17 7 9 1016.5 1015.4 0.0
 
Date/Time
EDT
Tmp

°C
App
Tmp
°C
Dew
Point
°C
Rel
Hum
%
Delta-T

°C
Wind Press
QNH
hPa
Press
MSL
hPa
Rain
since
9 am
mm
Dir
 
Spd
km/h
Gust
km/h
Spd
kts
Gust
kts
29/11:30pm 10.5 7.4 3.5 62 3.2 WNW 9 15 5 8 1016.7 1015.5 0.0
29/11:00pm 13.0 8.4 3.7 53 4.4 WNW 17 26 9 14 1016.5 1015.4 0.0
29/10:30pm 12.9 8.3 3.6 53 4.4 WNW 17 30 9 16 1016.5 1015.4 0.0
29/10:00pm 13.1 7.9 3.7 53 4.5 WNW 20 32 11 17 1016.5 1015.4 0.0
29/09:30pm 13.3 8.2 3.9 53 4.5 WNW 20 28 11 15 1016.7 1015.5 0.0
29/09:00pm 13.7 8.7 3.5 50 4.8 WNW 19 26 10 14 1016.5 1015.4 0.0
29/08:30pm 13.5 8.7 2.4 47 5.1 WNW 17 20 9 11 1016.2 1015.1 0.0
29/08:00pm 14.0 8.8 2.3 45 5.4 WNW 19 28 10 15 1015.8 1014.7 0.0
29/07:30pm 14.6 10.1 2.2 43 5.8 W 15 19 8 10 1015.3 1014.2 0.0
29/07:00pm 17.1 12.6 1.9 36 7.2 W 15 20 8 11 1015.2 1014.1 0.0
29/06:30pm 18.8 13.3 0.4 29 8.5 W 19 28 10 15 1014.9 1013.8 0.0
29/06:00pm 20.0 13.8 -0.6 25 9.5 W 22 30 12 16 1014.8 1013.6 0.0
29/05:30pm 20.9 14.9 1.2 27 9.4 WSW 22 32 12 17 1014.6 1013.4 0.0
29/05:00pm 21.6 15.6 1.3 26 9.8 WSW 22 28 12 15 1014.4 1013.2 0.0
29/04:30pm 21.9 15.8 0.4 24 10.2 WSW 22 30 12 16 1014.4 1013.2 0.0
29/04:00pm 22.0 17.0 3.6 30 9.3 W 19 24 10 13 1014.5 1013.3 0.0
29/03:30pm 20.8 18.4 4.4 34 8.3 N 6 13 3 7 1014.6 1013.4 0.0
29/03:00pm 21.2 18.7 4.7 34 8.5 WNW 7 13 4 7 1015.1 1014.0 0.0
29/02:30pm 20.6 17.8 5.0 36 8.0 SW 9 19 5 10 1015.2 1014.1 0.0
29/02:00pm 20.2 18.2 6.9 42 7.1 SW 7 11 4 6 1015.6 1014.4 0.0
29/01:30pm 18.8 15.8 6.0 43 6.6 ESE 11 19 6 10 1016.1 1015.0 0.0
29/11:00am 14.7 12.4 5.5 54 4.6 SSW 7 13 4 7 1017.9 1016.8 0.0
29/10:30am 13.8 12.8 8.8 72 2.7 N 4 9 2 5 1018.1 1017.0 0.0
29/10:00am 11.1 9.4 6.0 71 2.5 SSW 4 11 2 6 1018.2 1017.1 0.0
29/09:30am 9.9 7.6 5.9 76 1.9 WSW 7 13 4 7 1018.3 1017.2 0.0
29/09:20am 9.4 6.7 5.8 78 1.7 S 9 13 5 7 1018.2 1017.1 0.0
29/09:00am 9.1 6.6 6.4 83 1.3 S 9 15 5 8 1018.0 1016.9 0.0
29/08:30am 7.6 4.3 6.4 92 0.6 S 13 19 7 10 1018.0 1016.9 0.0
29/08:02am 6.4 2.7 6.3 99 0.0 S 15 19 8 10 1017.8 1016.7 0.0
29/08:00am 6.5 2.8 6.4 99 0.0 S 15 17 8 9 1017.8 1016.7 0.0
29/07:43am 6.0 1.8 5.9 99 0.0 S 17 20 9 11 1017.4 1016.3 0.0
29/07:41am 6.0 2.2 5.9 99 0.0 S 15 20 8 11 1017.3 1016.2 0.0
29/07:30am 5.8 2.4 5.7 99 0.0 SSW 13 17 7 9 1017.2 1016.1 0.0
29/07:00am 4.0 1.3 3.9 99 0.0 SW 7 9 4 5 1016.9 1015.8 0.0
29/06:30am 1.3 -0.9 1.2 99 0.0 SW 2 7 1 4 1016.7 1015.5 0.0

Latest Capital City Observations: Canberra | Sydney | Melbourne | Brisbane | Adelaide | Perth | Hobart | Darwin

Other Formats:

Comma delimited format used in spreadsheet applications
http://www.bom.gov.au/fwo/IDN60903/IDN60903.94921.axf

JavaScript Object Notation format (JSON) in row-major order
http://www.bom.gov.au/fwo/IDN60903/IDN60903.94921.json